KDUA/DUA METAR and TAF weather

Enter ICAO airport designator
Station Type Date Time Source
KDUA METAR 2020/09/24 11:15 UTC NOAA

KDUA 241115Z AUTO 05004KT 10SM OVC021 17/16 A2997 RMK AO2


Station Type Date Time Source
KDUA Decoded METAR 2020/09/24 11:15 UTC NOAA

Durant, Eaker Field Airport, OK, United States (KDUA) 33-56-32N 096-23-40W
Sep 24, 2020 - 07:15 AM EDT / 2020.09.24 1115 UTC
Wind: from the NE (050 degrees) at 5 MPH (4 KT):0
Visibility: 10 mile(s):0
Sky conditions: overcast
Temperature: 62 F (17 C)
Dew Point: 60 F (16 C)
Relative Humidity: 93%
Pressure (altimeter): 29.97 in. Hg (1014 hPa)
ob: KDUA 241115Z AUTO 05004KT 10SM OVC021 17/16 A2997 RMK AO2
cycle: 11

Station Type Date Time Source
KDUA TAF UTC NOAA

Error!

Example: see airport list